Will Rogers World Airport
KOKC : now visible

Airfield :











YOU CAN JOIN US ON...

 
LOGIN :

Register | Disclaimer

   EN    FR    IT 

 









Legend :    VFR   Marginal VFR   IFR   Intensive IFR   Very Intensive IFR
Visi :
Ceiling :
>= 8 km
>= 3000ft
5 to 8 km
1000 to 3000 ft
1500m to 5 km
500 to 1000 ft
800 to 1500m
200 to 500 ft
< 800m
< 200 ft
Symbols :   Thunderstorms  Fog  Heavy snow  Heavy precipitations  Wind > 20 kt






- Airport Elevation : 1295 ft
- IATA code : OKC


KOKC - Will Rogers World

CURRENT METAR :
  • 230852Z 16008KT 10SM -RA BKN120 OVC200 08/03 A3003 RMK AO2 RAB51 SLP165 P0000 60000 T00830033 56012

EXPIRED METARs :
  • 230752Z 18009KT 10SM FEW120 BKN180 OVC250 09/03 A3004 RMK AO2 SLP171 T00890028
  • 230652Z 17012KT 10SM BKN120 BKN180 OVC250 09/03 A3005 RMK AO2 SLP173 T00890033

TAF KOKC
Valid from the 23 at 06:00 until the 24 at 06:00 UTC


230537Z 2306/2406 17013KT P6SM OVC120
FM231200 18013G19KT P6SM OVC070
FM232000 17013G19KT P6SM OVC040
TEMPO 2320/2324 3SM -TSRA OVC010CB
FM240000 16014KT 5SM BR OVC008
TEMPO 2400/2404 6SM -RA BR OVC015



MET'MAP, your aeronautical weather chart ! - Copyright ORBIFLY December 2007 - Disclaimer

ORBIFLY MET'MAP TEAM :

Programming & Development : Alexandra Zaïnal
Concept & original design : Baudouin d'Aumeries
Assistance for programming : Marc-Olivier Méhu
Technical & hardware support : Manuel Goepfert

Contact : metmap@orbifly.com




SOURCES & CREDITS :

   NOAA       Earth
Advisory